createdAt,value
2018-09-02T00:00:19.728Z,992.69
2018-09-02T00:01:19.655Z,992.65
2018-09-02T00:02:19.589Z,992.65
2018-09-02T00:03:19.541Z,992.68
2018-09-02T00:04:19.475Z,992.67
2018-09-02T00:05:19.406Z,992.65
2018-09-02T00:06:19.341Z,992.67
2018-09-02T00:07:19.288Z,992.62
2018-09-02T00:08:19.222Z,992.61
2018-09-02T00:09:19.153Z,992.62
2018-09-02T00:10:19.095Z,992.63
2018-09-02T00:11:19.028Z,992.62
2018-09-02T00:12:18.979Z,992.61
2018-09-02T00:13:18.902Z,992.60
2018-09-02T00:14:18.842Z,992.57
2018-09-02T00:15:18.777Z,992.55
2018-09-02T00:16:18.722Z,992.56
2018-09-02T00:17:18.644Z,992.53
2018-09-02T00:18:18.578Z,992.55
2018-09-02T00:19:18.530Z,992.54
2018-09-02T00:20:18.496Z,992.52
2018-09-02T00:21:18.405Z,992.51
2018-09-02T00:22:18.338Z,992.50
2018-09-02T00:23:18.288Z,992.51
2018-09-02T00:24:18.235Z,992.54
2018-09-02T00:25:18.183Z,992.46
2018-09-02T00:26:18.081Z,992.48
2018-09-02T00:27:18.035Z,992.45
2018-09-02T00:28:18.554Z,992.40
2018-09-02T00:29:17.897Z,992.40
2018-09-02T00:30:17.841Z,992.37
2018-09-02T00:31:17.776Z,992.38
2018-09-02T00:32:17.699Z,992.37
2018-09-02T00:33:17.739Z,992.39
2018-09-02T00:34:17.580Z,992.33
2018-09-02T00:35:17.518Z,992.38
2018-09-02T00:36:17.459Z,992.36
2018-09-02T00:37:17.384Z,992.38
2018-09-02T00:38:17.322Z,992.37
2018-09-02T00:39:17.265Z,992.36
2018-09-02T00:40:17.206Z,992.37
2018-09-02T00:41:17.127Z,992.40
2018-09-02T00:42:17.070Z,992.40
2018-09-02T00:43:17.003Z,992.38
2018-09-02T00:44:16.947Z,992.46
2018-09-02T00:45:16.884Z,992.47
2018-09-02T00:46:16.810Z,992.46
2018-09-02T00:47:16.749Z,992.50
2018-09-02T00:48:16.690Z,992.47
2018-09-02T00:49:16.632Z,992.48
2018-09-02T00:50:16.563Z,992.50
2018-09-02T00:51:16.505Z,992.47
2018-09-02T00:52:16.431Z,992.50
2018-09-02T00:53:16.370Z,992.51
2018-09-02T00:54:16.313Z,992.51
2018-09-02T00:55:16.255Z,992.50
2018-09-02T00:56:16.176Z,992.48
2018-09-02T00:57:16.115Z,992.47
2018-09-02T00:58:16.078Z,992.48
2018-09-02T00:59:15.986Z,992.49
2018-09-02T01:00:15.932Z,992.49
2018-09-02T01:01:15.871Z,992.53
2018-09-02T01:02:15.808Z,992.52
2018-09-02T01:03:15.747Z,992.55
2018-09-02T01:04:15.686Z,992.60
2018-09-02T01:05:15.602Z,992.55
2018-09-02T01:06:15.549Z,992.54
2018-09-02T01:07:15.474Z,992.57
2018-09-02T01:08:15.428Z,992.57
2018-09-02T01:09:15.361Z,992.58
2018-09-02T01:10:15.286Z,992.55
2018-09-02T01:11:15.246Z,992.56
2018-09-02T01:12:15.174Z,992.57
2018-09-02T01:13:15.105Z,992.52
2018-09-02T01:14:15.048Z,992.55
2018-09-02T01:15:14.982Z,992.53
2018-09-02T01:16:14.914Z,992.53
2018-09-02T01:17:14.855Z,992.56
2018-09-02T01:18:14.776Z,992.57
2018-09-02T01:19:14.738Z,992.54
2018-09-02T01:20:14.666Z,992.62
2018-09-02T01:21:14.597Z,992.59
2018-09-02T01:22:14.537Z,992.63
2018-09-02T01:23:14.476Z,992.61
2018-09-02T01:24:14.400Z,992.63
2018-09-02T01:25:14.342Z,992.63
2018-09-02T01:26:14.287Z,992.65
2018-09-02T01:27:14.219Z,992.65
2018-09-02T01:28:14.146Z,992.65
2018-09-02T01:29:14.106Z,992.64
2018-09-02T01:30:14.022Z,992.68
2018-09-02T01:31:13.948Z,992.66
2018-09-02T01:32:13.897Z,992.67
2018-09-02T01:33:13.835Z,992.67
2018-09-02T01:34:13.772Z,992.64
2018-09-02T01:35:13.709Z,992.67
2018-09-02T01:36:13.652Z,992.61
2018-09-02T01:37:13.576Z,992.60
2018-09-02T01:38:13.516Z,992.62
2018-09-02T01:39:13.449Z,992.60
2018-09-02T01:40:13.393Z,992.58
2018-09-02T01:41:13.326Z,992.56
2018-09-02T01:42:13.258Z,992.59
2018-09-02T01:43:13.190Z,992.57
2018-09-02T01:44:13.137Z,992.55
2018-09-02T01:45:13.075Z,992.58
2018-09-02T01:46:13.005Z,992.59
2018-09-02T01:47:12.948Z,992.54
2018-09-02T01:48:12.872Z,992.58
2018-09-02T01:49:12.831Z,992.57
2018-09-02T01:50:12.755Z,992.55
2018-09-02T01:51:12.692Z,992.61
2018-09-02T01:52:12.625Z,992.57
2018-09-02T01:53:12.585Z,992.59
2018-09-02T01:54:12.490Z,992.57
2018-09-02T01:55:12.426Z,992.57
2018-09-02T01:56:12.372Z,992.55
2018-09-02T01:57:12.305Z,992.50
2018-09-02T01:58:12.244Z,992.53
2018-09-02T01:59:12.169Z,992.53
2018-09-02T02:00:12.116Z,992.51
2018-09-02T02:01:12.055Z,992.52
2018-09-02T02:02:11.987Z,992.51
2018-09-02T02:03:11.923Z,992.54
2018-09-02T02:04:11.866Z,992.56
2018-09-02T02:05:11.796Z,992.55
2018-09-02T02:06:11.724Z,992.53
2018-09-02T02:07:11.652Z,992.56
2018-09-02T02:08:11.603Z,992.58
2018-09-02T02:09:11.540Z,992.58
2018-09-02T02:10:11.479Z,992.59
2018-09-02T02:11:11.413Z,992.59
2018-09-02T02:12:11.356Z,992.57
2018-09-02T02:13:11.292Z,992.53
2018-09-02T02:14:11.221Z,992.59
2018-09-02T02:15:11.156Z,992.61
2018-09-02T02:16:11.078Z,992.59
2018-09-02T02:17:11.024Z,992.57
2018-09-02T02:18:10.973Z,992.57
2018-09-02T02:19:10.912Z,992.54
2018-09-02T02:20:10.834Z,992.55
2018-09-02T02:21:10.777Z,992.51
2018-09-02T02:22:10.701Z,992.50
2018-09-02T02:23:10.636Z,992.53
2018-09-02T02:24:10.577Z,992.52
2018-09-02T02:25:10.518Z,992.52
2018-09-02T02:26:10.459Z,992.50
2018-09-02T02:27:10.393Z,992.48
2018-09-02T02:28:10.343Z,992.53
2018-09-02T02:29:10.248Z,992.53
2018-09-02T02:30:10.203Z,992.50
2018-09-02T02:31:10.139Z,992.48
2018-09-02T02:32:10.069Z,992.47
2018-09-02T02:33:10.013Z,992.46
2018-09-02T02:34:09.932Z,992.46
2018-09-02T02:35:09.864Z,992.47
2018-09-02T02:36:09.815Z,992.47
2018-09-02T02:37:09.750Z,992.42
2018-09-02T02:38:09.685Z,992.45
2018-09-02T02:39:09.628Z,992.46
2018-09-02T02:40:09.550Z,992.46
2018-09-02T02:41:09.490Z,992.45
2018-09-02T02:42:09.421Z,992.47
2018-09-02T02:43:09.362Z,992.48
2018-09-02T02:44:09.301Z,992.45
2018-09-02T02:45:09.237Z,992.42
2018-09-02T02:46:09.186Z,992.46
2018-09-02T02:47:09.124Z,992.47
2018-09-02T02:48:09.050Z,992.50
2018-09-02T02:49:08.992Z,992.48
2018-09-02T02:50:08.919Z,992.50
2018-09-02T02:51:08.855Z,992.46
2018-09-02T02:52:08.780Z,992.49
2018-09-02T02:53:08.736Z,992.46
2018-09-02T02:54:08.664Z,992.45
2018-09-02T02:55:08.597Z,992.47
2018-09-02T02:56:08.526Z,992.50
2018-09-02T02:57:08.461Z,992.46
2018-09-02T02:58:08.401Z,992.49
2018-09-02T02:59:08.332Z,992.49
2018-09-02T03:00:08.286Z,992.49
2018-09-02T03:01:08.219Z,992.51
2018-09-02T03:02:08.150Z,992.48
2018-09-02T03:03:08.097Z,992.52
2018-09-02T03:04:08.031Z,992.55
2018-09-02T03:05:07.957Z,992.56
2018-09-02T03:06:07.899Z,992.52
2018-09-02T03:07:07.830Z,992.54
2018-09-02T03:08:07.772Z,992.55
2018-09-02T03:09:07.689Z,992.52
2018-09-02T03:10:07.634Z,992.55
2018-09-02T03:11:07.569Z,992.50
2018-09-02T03:12:07.517Z,992.51
2018-09-02T03:13:07.446Z,992.50
2018-09-02T03:14:07.386Z,992.51
2018-09-02T03:15:07.323Z,992.48
2018-09-02T03:16:07.262Z,992.46
2018-09-02T03:17:07.182Z,992.45
2018-09-02T03:18:07.135Z,992.42
2018-09-02T03:19:07.061Z,992.46
2018-09-02T03:20:06.995Z,992.43
2018-09-02T03:21:06.933Z,992.46
2018-09-02T03:22:06.860Z,992.44
2018-09-02T03:23:06.799Z,992.43
2018-09-02T03:24:06.742Z,992.46
2018-09-02T03:25:06.677Z,992.44
2018-09-02T03:26:06.616Z,992.50
2018-09-02T03:27:06.549Z,992.46
2018-09-02T03:28:06.477Z,992.46
2018-09-02T03:29:06.416Z,992.45
2018-09-02T03:30:06.384Z,992.47
2018-09-02T03:31:06.290Z,992.44
2018-09-02T03:32:06.232Z,992.46
2018-09-02T03:33:06.176Z,992.46
2018-09-02T03:34:06.093Z,992.43
2018-09-02T03:35:06.059Z,992.48
2018-09-02T03:36:05.977Z,992.48
2018-09-02T03:37:05.943Z,992.47
2018-09-02T03:38:05.845Z,992.47
2018-09-02T03:39:05.783Z,992.46
2018-09-02T03:40:05.710Z,992.47
2018-09-02T03:41:05.663Z,992.44
2018-09-02T03:42:05.579Z,992.46
2018-09-02T03:43:05.545Z,992.44
2018-09-02T03:44:05.470Z,992.44
2018-09-02T03:45:05.399Z,992.42
2018-09-02T03:46:05.333Z,992.39
2018-09-02T03:47:05.269Z,992.47
2018-09-02T03:48:05.190Z,992.42
2018-09-02T03:49:05.130Z,992.43
2018-09-02T03:50:05.071Z,992.43
2018-09-02T03:51:05.009Z,992.39
2018-09-02T03:52:04.930Z,992.39
2018-09-02T03:53:04.872Z,992.35
2018-09-02T03:54:04.822Z,992.37
2018-09-02T03:55:04.740Z,992.36
2018-09-02T03:56:04.692Z,992.33
2018-09-02T03:57:04.626Z,992.37
2018-09-02T03:58:04.552Z,992.37
2018-09-02T03:59:04.510Z,992.34
2018-09-02T04:00:04.433Z,992.42
2018-09-02T04:01:04.373Z,992.37
2018-09-02T04:02:04.305Z,992.36
2018-09-02T04:03:04.234Z,992.36
2018-09-02T04:04:04.162Z,992.37
2018-09-02T04:05:04.107Z,992.39
2018-09-02T04:06:04.048Z,992.33
2018-09-02T04:07:03.981Z,992.33
2018-09-02T04:08:03.906Z,992.34
2018-09-02T04:09:03.855Z,992.32
2018-09-02T04:10:03.776Z,992.30
2018-09-02T04:11:03.712Z,992.31
2018-09-02T04:12:03.652Z,992.31
2018-09-02T04:13:03.594Z,992.29
2018-09-02T04:14:03.527Z,992.27
2018-09-02T04:15:03.464Z,992.30
2018-09-02T04:16:03.406Z,992.35
2018-09-02T04:17:03.326Z,992.31
2018-09-02T04:18:03.261Z,992.34
2018-09-02T04:19:03.218Z,992.33
2018-09-02T04:20:03.140Z,992.32
2018-09-02T04:21:03.076Z,992.34
2018-09-02T04:22:03.019Z,992.40
2018-09-02T04:23:02.936Z,992.37
2018-09-02T04:24:02.879Z,992.35
2018-09-02T04:25:02.819Z,992.33
2018-09-02T04:26:02.752Z,992.35
2018-09-02T04:27:02.689Z,992.35
2018-09-02T04:28:02.633Z,992.35
2018-09-02T04:29:02.551Z,992.31
2018-09-02T04:30:02.492Z,992.35
2018-09-02T04:31:02.422Z,992.34
2018-09-02T04:32:02.367Z,992.34
2018-09-02T04:33:02.306Z,992.33
2018-09-02T04:34:02.237Z,992.34
2018-09-02T04:35:02.170Z,992.35
2018-09-02T04:36:02.119Z,992.36
2018-09-02T04:37:02.035Z,992.34
2018-09-02T04:38:01.983Z,992.35
2018-09-02T04:39:01.914Z,992.34
2018-09-02T04:40:01.841Z,992.34
2018-09-02T04:41:01.781Z,992.32
2018-09-02T04:42:01.715Z,992.28
2018-09-02T04:43:01.666Z,992.28
2018-09-02T04:44:01.589Z,992.29
2018-09-02T04:45:01.540Z,992.26
2018-09-02T04:46:01.465Z,992.28
2018-09-02T04:47:01.391Z,992.28
2018-09-02T04:48:01.333Z,992.29
2018-09-02T04:49:01.267Z,992.26
2018-09-02T04:50:01.212Z,992.28
2018-09-02T04:51:01.148Z,992.28
2018-09-02T04:52:01.079Z,992.26
2018-09-02T04:53:01.010Z,992.29
2018-09-02T04:54:00.936Z,992.28
2018-09-02T04:55:00.875Z,992.28
2018-09-02T04:56:00.820Z,992.33
2018-09-02T04:57:00.751Z,992.31
2018-09-02T04:58:00.686Z,992.30
2018-09-02T04:59:00.617Z,992.30
2018-09-02T05:00:00.575Z,992.30
2018-09-02T05:01:00.487Z,992.33
2018-09-02T05:02:00.432Z,992.35
2018-09-02T05:03:00.366Z,992.35
2018-09-02T05:04:00.293Z,992.34
2018-09-02T05:05:00.245Z,992.38
2018-09-02T05:06:00.163Z,992.37
2018-09-02T05:07:00.097Z,992.35
2018-09-02T05:08:00.050Z,992.37
2018-09-02T05:08:59.973Z,992.37
2018-09-02T05:09:59.926Z,992.37
2018-09-02T05:10:59.853Z,992.36
2018-09-02T05:11:59.785Z,992.36
2018-09-02T05:12:59.727Z,992.34
2018-09-02T05:13:59.727Z,992.34
2018-09-02T05:14:59.592Z,992.34
2018-09-02T05:15:59.524Z,992.34
2018-09-02T05:16:59.452Z,992.34
2018-09-02T05:17:59.391Z,992.33
2018-09-02T05:18:59.339Z,992.35
2018-09-02T05:19:59.267Z,992.34
2018-09-02T05:20:59.201Z,992.37
2018-09-02T05:21:59.137Z,992.34
2018-09-02T05:22:59.084Z,992.34
2018-09-02T05:23:58.998Z,992.36
2018-09-02T05:24:58.939Z,992.33
2018-09-02T05:25:58.888Z,992.34
2018-09-02T05:26:58.815Z,992.36
2018-09-02T05:27:58.742Z,992.34
2018-09-02T05:28:58.677Z,992.32
2018-09-02T05:29:58.612Z,992.32
2018-09-02T05:30:58.547Z,992.36
2018-09-02T05:31:58.495Z,992.36
2018-09-02T05:32:58.428Z,992.36
2018-09-02T05:33:58.367Z,992.37
2018-09-02T05:34:58.300Z,992.39
2018-09-02T05:35:58.235Z,992.37
2018-09-02T05:36:58.260Z,992.37
2018-09-02T05:37:58.102Z,992.40
2018-09-02T05:38:58.034Z,992.42
2018-09-02T05:39:57.974Z,992.42
2018-09-02T05:40:57.910Z,992.36
2018-09-02T05:41:57.843Z,992.38
2018-09-02T05:42:57.777Z,992.40
2018-09-02T05:43:57.757Z,992.46
2018-09-02T05:44:57.657Z,992.45
2018-09-02T05:45:57.594Z,992.48
2018-09-02T05:46:57.529Z,992.53
2018-09-02T05:47:57.457Z,992.50
2018-09-02T05:48:57.407Z,992.52
2018-09-02T05:49:57.347Z,992.54
2018-09-02T05:50:57.279Z,992.52
2018-09-02T05:51:57.200Z,992.52
2018-09-02T05:52:57.142Z,992.56
2018-09-02T05:53:57.074Z,992.53
2018-09-02T05:54:57.007Z,992.53
2018-09-02T05:55:56.937Z,992.57
2018-09-02T05:56:56.892Z,992.61
2018-09-02T05:57:56.823Z,992.58
2018-09-02T05:58:56.756Z,992.56
2018-09-02T05:59:56.706Z,992.56
2018-09-02T06:00:56.637Z,992.57
2018-09-02T06:01:56.549Z,992.54
2018-09-02T06:02:56.588Z,992.57
2018-09-02T06:03:56.432Z,992.54
2018-09-02T06:04:56.372Z,992.53
2018-09-02T06:05:56.291Z,992.56
2018-09-02T06:06:56.229Z,992.55
2018-09-02T06:07:56.180Z,992.53
2018-09-02T06:08:56.108Z,992.52
2018-09-02T06:09:56.043Z,992.51
2018-09-02T06:10:55.979Z,992.55
2018-09-02T06:11:55.910Z,992.56
2018-09-02T06:12:55.861Z,992.59
2018-09-02T06:13:55.790Z,992.61
2018-09-02T06:14:55.729Z,992.62
2018-09-02T06:15:55.654Z,992.66
2018-09-02T06:16:55.596Z,992.65
2018-09-02T06:17:55.517Z,992.68
2018-09-02T06:18:55.476Z,992.68
2018-09-02T06:19:55.404Z,992.66
2018-09-02T06:20:55.337Z,992.67
2018-09-02T06:21:55.276Z,992.72
2018-09-02T06:22:55.209Z,992.70
2018-09-02T06:23:55.133Z,992.70
2018-09-02T06:24:55.071Z,992.71
2018-09-02T06:25:55.013Z,992.70
2018-09-02T06:26:54.939Z,992.72
2018-09-02T06:27:54.898Z,992.71
2018-09-02T06:28:54.823Z,992.72
2018-09-02T06:29:54.830Z,992.72
2018-09-02T06:30:54.689Z,992.75
2018-09-02T06:31:54.632Z,992.75
2018-09-02T06:32:54.642Z,992.75
2018-09-02T06:33:54.511Z,992.77
2018-09-02T06:34:54.441Z,992.74
2018-09-02T06:35:54.371Z,992.76
2018-09-02T06:36:54.303Z,992.79
2018-09-02T06:37:54.247Z,992.82
2018-09-02T06:38:54.178Z,992.83
2018-09-02T06:39:54.110Z,992.84
2018-09-02T06:40:54.056Z,992.85
2018-09-02T06:41:53.977Z,992.84
2018-09-02T06:42:53.922Z,992.83
2018-09-02T06:43:53.865Z,992.82
2018-09-02T06:44:53.801Z,992.80
2018-09-02T06:45:53.779Z,992.82
2018-09-02T06:46:53.674Z,992.81
2018-09-02T06:47:53.610Z,992.79
2018-09-02T06:48:53.544Z,992.81
2018-09-02T06:49:53.479Z,992.83
2018-09-02T06:50:53.412Z,992.81
2018-09-02T06:51:53.343Z,992.82
2018-09-02T06:52:53.298Z,992.84
2018-09-02T06:53:53.222Z,992.87
2018-09-02T06:54:53.151Z,992.87
2018-09-02T06:55:53.098Z,992.89
2018-09-02T06:56:53.034Z,992.91
2018-09-02T06:57:52.970Z,992.95
2018-09-02T06:58:52.906Z,992.95
2018-09-02T06:59:52.828Z,992.98
2018-09-02T07:00:52.773Z,992.96
2018-09-02T07:01:52.721Z,992.96
2018-09-02T07:02:52.658Z,992.98
2018-09-02T07:03:52.592Z,993.02
2018-09-02T07:04:52.525Z,993.00
2018-09-02T07:05:52.475Z,993.02
2018-09-02T07:06:52.455Z,992.97
2018-09-02T07:07:52.336Z,993.00
2018-09-02T07:08:52.280Z,992.99
2018-09-02T07:09:52.209Z,993.00
2018-09-02T07:10:52.143Z,992.97
2018-09-02T07:11:52.089Z,992.99
2018-09-02T07:12:52.030Z,992.96
2018-09-02T07:13:51.964Z,993.00
2018-09-02T07:14:51.895Z,993.02
2018-09-02T07:15:51.849Z,992.97
2018-09-02T07:16:51.763Z,993.01
2018-09-02T07:17:51.710Z,993.01
2018-09-02T07:18:51.644Z,993.04
2018-09-02T07:19:51.577Z,992.99
2018-09-02T07:20:51.532Z,992.96
2018-09-02T07:21:51.441Z,992.95
2018-09-02T07:22:51.382Z,992.98
2018-09-02T07:23:51.334Z,992.99
2018-09-02T07:24:51.271Z,992.98
2018-09-02T07:25:51.214Z,992.99
2018-09-02T07:26:51.142Z,993.02
2018-09-02T07:27:51.073Z,992.99
2018-09-02T07:28:51.008Z,992.95
2018-09-02T07:29:50.947Z,992.96
2018-09-02T07:30:50.881Z,992.97
2018-09-02T07:31:50.836Z,992.97
2018-09-02T07:32:50.764Z,992.97
2018-09-02T07:33:50.693Z,992.93
2018-09-02T07:34:50.631Z,992.98
2018-09-02T07:35:50.574Z,992.97
2018-09-02T07:36:50.522Z,992.99
2018-09-02T07:37:50.451Z,992.99
2018-09-02T07:38:50.388Z,993.02
2018-09-02T07:39:50.323Z,993.03
2018-09-02T07:40:50.274Z,993.02
2018-09-02T07:41:50.197Z,993.03
2018-09-02T07:42:50.131Z,992.98
2018-09-02T07:43:50.170Z,993.06
2018-09-02T07:44:50.020Z,993.06
2018-09-02T07:45:49.956Z,993.07
2018-09-02T07:46:49.896Z,993.03
2018-09-02T07:47:49.839Z,993.04
2018-09-02T07:48:49.776Z,993.05
2018-09-02T07:49:49.710Z,993.03
2018-09-02T07:50:49.642Z,993.03
2018-09-02T07:51:49.569Z,993.02
2018-09-02T07:52:49.511Z,993.05
2018-09-02T07:53:49.456Z,993.03
2018-09-02T07:54:49.379Z,993.01
2018-09-02T07:55:49.333Z,992.97
2018-09-02T07:56:49.299Z,993.01
2018-09-02T07:57:49.204Z,993.05
2018-09-02T07:58:49.146Z,993.02
2018-09-02T07:59:49.073Z,992.98
2018-09-02T08:00:49.016Z,993.00
2018-09-02T08:01:48.947Z,993.00
2018-09-02T08:02:48.978Z,992.96
2018-09-02T08:03:48.834Z,992.97
2018-09-02T08:04:48.772Z,993.00
2018-09-02T08:05:48.706Z,993.01
2018-09-02T08:06:48.641Z,993.00
2018-09-02T08:07:48.592Z,992.99
2018-09-02T08:08:48.529Z,992.97
2018-09-02T08:09:48.460Z,992.99
2018-09-02T08:10:48.402Z,992.97
2018-09-02T08:11:48.341Z,992.98
2018-09-02T08:12:48.328Z,992.97
2018-09-02T08:13:48.219Z,993.04
2018-09-02T08:14:48.160Z,993.02
2018-09-02T08:15:48.123Z,993.02
2018-09-02T08:16:48.032Z,993.03
2018-09-02T08:17:47.963Z,993.03
2018-09-02T08:18:47.891Z,993.03
2018-09-02T08:19:47.893Z,993.04
2018-09-02T08:20:47.788Z,993.06
2018-09-02T08:21:47.721Z,993.07
2018-09-02T08:22:47.673Z,993.05
2018-09-02T08:23:47.599Z,993.05
2018-09-02T08:24:47.533Z,993.04
2018-09-02T08:25:47.480Z,993.05
2018-09-02T08:26:47.476Z,993.07
2018-09-02T08:27:47.344Z,993.02
2018-09-02T08:28:47.300Z,993.04
2018-09-02T08:29:47.238Z,993.07
2018-09-02T08:30:47.164Z,993.06
2018-09-02T08:31:47.108Z,993.08
2018-09-02T08:32:47.088Z,993.08
2018-09-02T08:33:46.979Z,993.06
2018-09-02T08:34:46.923Z,993.04
2018-09-02T08:35:46.868Z,993.04
2018-09-02T08:36:46.789Z,993.06
2018-09-02T08:37:46.735Z,992.98
2018-09-02T08:38:46.687Z,993.02
2018-09-02T08:39:46.604Z,993.01
2018-09-02T08:40:46.552Z,993.02
2018-09-02T08:41:46.504Z,993.01
2018-09-02T08:42:46.437Z,993.01
2018-09-02T08:43:46.367Z,993.01
2018-09-02T08:44:46.302Z,993.03
2018-09-02T08:45:46.240Z,993.02
2018-09-02T08:46:46.186Z,993.03
2018-09-02T08:47:46.109Z,992.98
2018-09-02T08:48:46.047Z,993.02
2018-09-02T08:49:45.992Z,993.01
2018-09-02T08:50:45.931Z,993.00
2018-09-02T08:51:45.870Z,993.01
2018-09-02T08:52:45.815Z,992.98
2018-09-02T08:53:45.741Z,992.97
2018-09-02T08:54:45.683Z,992.96
2018-09-02T08:55:45.631Z,992.94
2018-09-02T08:56:45.564Z,992.90
2018-09-02T08:57:45.507Z,992.88
2018-09-02T08:58:45.440Z,992.89
2018-09-02T08:59:45.373Z,992.90
2018-09-02T09:00:45.315Z,992.92
2018-09-02T09:01:45.276Z,992.92
2018-09-02T09:02:45.205Z,992.91
2018-09-02T09:03:45.152Z,992.92
2018-09-02T09:04:45.078Z,992.91
2018-09-02T09:05:45.024Z,992.94
2018-09-02T09:06:44.950Z,992.95
2018-09-02T09:07:45.101Z,992.90
2018-09-02T09:08:45.132Z,992.88
2018-09-02T09:09:44.803Z,992.89
2018-09-02T09:10:44.710Z,992.86
2018-09-02T09:11:44.633Z,992.86
2018-09-02T09:12:44.577Z,992.86
2018-09-02T09:13:44.533Z,992.84
2018-09-02T09:14:44.453Z,992.84
2018-09-02T09:15:44.411Z,992.79
2018-09-02T09:16:44.472Z,992.82
2018-09-02T09:17:44.283Z,992.82
2018-09-02T09:18:44.211Z,992.80
2018-09-02T09:19:44.159Z,992.84
2018-09-02T09:20:44.097Z,992.83
2018-09-02T09:21:44.180Z,992.86
2018-09-02T09:22:44.021Z,992.85
2018-09-02T09:23:43.913Z,992.86
2018-09-02T09:24:43.859Z,992.81
2018-09-02T09:25:43.794Z,992.82
2018-09-02T09:26:43.727Z,992.84
2018-09-02T09:27:43.664Z,992.84
2018-09-02T09:28:43.625Z,992.81
2018-09-02T09:29:43.545Z,992.80
2018-09-02T09:30:43.492Z,992.79
2018-09-02T09:31:43.445Z,992.80
2018-09-02T09:32:43.373Z,992.77
2018-09-02T09:33:43.319Z,992.76
2018-09-02T09:34:43.257Z,992.71
2018-09-02T09:35:43.183Z,992.71
2018-09-02T09:36:43.122Z,992.69
2018-09-02T09:37:43.067Z,992.66
2018-09-02T09:38:43.012Z,992.70
2018-09-02T09:39:42.967Z,992.67
2018-09-02T09:40:42.932Z,992.68
2018-09-02T09:41:42.825Z,992.68
2018-09-02T09:42:42.770Z,992.66
2018-09-02T09:43:42.715Z,992.68
2018-09-02T09:44:42.652Z,992.68
2018-09-02T09:45:42.611Z,992.68
2018-09-02T09:46:42.516Z,992.66
2018-09-02T09:47:42.472Z,992.67
2018-09-02T09:48:42.416Z,992.68
2018-09-02T09:49:42.365Z,992.63
2018-09-02T09:50:42.288Z,992.66
2018-09-02T09:51:42.229Z,992.64
2018-09-02T09:52:42.169Z,992.59
2018-09-02T09:53:42.103Z,992.61
2018-09-02T09:54:42.036Z,992.56
2018-09-02T09:55:41.998Z,992.55
2018-09-02T09:56:41.924Z,992.54
2018-09-02T09:57:41.865Z,992.50
2018-09-02T09:58:41.813Z,992.51
2018-09-02T09:59:41.729Z,992.51
2018-09-02T10:00:41.675Z,992.46
2018-09-02T10:01:41.632Z,992.46
2018-09-02T10:02:41.564Z,992.44
2018-09-02T10:03:41.520Z,992.46
2018-09-02T10:04:41.444Z,992.45
2018-09-02T10:05:41.387Z,992.42
2018-09-02T10:06:41.314Z,992.44
2018-09-02T10:07:41.269Z,992.43
2018-09-02T10:08:41.187Z,992.39
2018-09-02T10:09:41.132Z,992.42
2018-09-02T10:10:41.084Z,992.41
2018-09-02T10:11:41.123Z,992.38
2018-09-02T10:12:40.953Z,992.41
2018-09-02T10:13:40.911Z,992.36
2018-09-02T10:14:40.836Z,992.38
2018-09-02T10:15:40.781Z,992.33
2018-09-02T10:16:40.722Z,992.26
2018-09-02T10:17:40.665Z,992.31
2018-09-02T10:18:40.607Z,992.26
2018-09-02T10:19:40.543Z,992.24
2018-09-02T10:20:40.486Z,992.23
2018-09-02T10:21:40.469Z,992.20
2018-09-02T10:22:40.389Z,992.19
2018-09-02T10:23:40.307Z,992.16
2018-09-02T10:24:40.227Z,992.18
2018-09-02T10:25:40.181Z,992.16
2018-09-02T10:26:40.119Z,992.17
2018-09-02T10:27:40.068Z,992.15
2018-09-02T10:28:39.988Z,992.14
2018-09-02T10:29:39.927Z,992.14
2018-09-02T10:30:39.876Z,992.13
2018-09-02T10:31:39.826Z,992.13
2018-09-02T10:32:39.758Z,992.11
2018-09-02T10:33:39.700Z,992.09
2018-09-02T10:34:39.635Z,992.09
2018-09-02T10:35:39.660Z,992.07
2018-09-02T10:36:39.525Z,992.05
2018-09-02T10:37:39.446Z,992.03
2018-09-02T10:38:39.397Z,992.00
2018-09-02T10:39:39.335Z,991.98
2018-09-02T10:40:39.276Z,991.96
2018-09-02T10:41:39.217Z,991.96
2018-09-02T10:42:39.163Z,991.96
2018-09-02T10:43:39.084Z,991.93
2018-09-02T10:44:39.038Z,991.96
2018-09-02T10:45:38.977Z,991.92
2018-09-02T10:46:38.923Z,991.93
2018-09-02T10:47:38.844Z,991.88
2018-09-02T10:48:38.781Z,991.88
2018-09-02T10:49:38.761Z,991.86
2018-09-02T10:50:38.674Z,991.82
2018-09-02T10:51:38.610Z,991.83
2018-09-02T10:52:38.543Z,991.82
2018-09-02T10:53:38.493Z,991.81
2018-09-02T10:54:38.440Z,991.81
2018-09-02T10:55:38.372Z,991.79
2018-09-02T10:56:38.315Z,991.75
2018-09-02T10:57:38.257Z,991.79
2018-09-02T10:58:38.177Z,991.74
2018-09-02T10:59:38.179Z,991.74
2018-09-02T11:00:38.073Z,991.74
2018-09-02T11:01:38.011Z,991.72
2018-09-02T11:02:37.948Z,991.71
2018-09-02T11:03:37.885Z,991.70
2018-09-02T11:04:37.828Z,991.68
2018-09-02T11:05:37.764Z,991.63
2018-09-02T11:06:37.712Z,991.63
2018-09-02T11:07:37.699Z,991.65
2018-09-02T11:08:37.648Z,991.64
2018-09-02T11:09:37.543Z,991.63
2018-09-02T11:10:37.466Z,991.62
2018-09-02T11:11:37.405Z,991.62
2018-09-02T11:12:37.350Z,991.63
2018-09-02T11:13:37.445Z,991.62
2018-09-02T11:14:37.238Z,991.59
2018-09-02T11:15:37.197Z,991.58
2018-09-02T11:16:37.108Z,991.53
2018-09-02T11:17:37.049Z,991.55
2018-09-02T11:18:37.003Z,991.53
2018-09-02T11:19:36.947Z,991.58
2018-09-02T11:20:36.876Z,991.54
2018-09-02T11:21:36.827Z,991.52
2018-09-02T11:22:36.743Z,991.52
2018-09-02T11:23:36.683Z,991.49
2018-09-02T11:24:36.638Z,991.51
2018-09-02T11:25:36.579Z,991.49
2018-09-02T11:26:36.510Z,991.42
2018-09-02T11:27:36.448Z,991.42
2018-09-02T11:28:36.380Z,991.38
2018-09-02T11:29:36.326Z,991.32
2018-09-02T11:30:36.270Z,991.35
2018-09-02T11:31:36.214Z,991.31
2018-09-02T11:32:36.142Z,991.30
2018-09-02T11:33:36.237Z,991.28
2018-09-02T11:34:36.036Z,991.30
2018-09-02T11:35:35.969Z,991.24
2018-09-02T11:36:35.915Z,991.26
2018-09-02T11:37:35.855Z,991.24
2018-09-02T11:38:35.784Z,991.24
2018-09-02T11:39:35.749Z,991.18
2018-09-02T11:40:35.684Z,991.20
2018-09-02T11:41:35.627Z,991.17
2018-09-02T11:42:35.554Z,991.23
2018-09-02T11:43:35.493Z,991.20
2018-09-02T11:44:35.433Z,991.21
2018-09-02T11:45:35.373Z,991.17
2018-09-02T11:46:35.333Z,991.16
2018-09-02T11:47:35.245Z,991.12
2018-09-02T11:48:35.193Z,991.11
2018-09-02T11:49:35.132Z,991.12
2018-09-02T11:50:35.083Z,991.06
2018-09-02T11:51:35.009Z,991.04
2018-09-02T11:52:34.941Z,991.03
2018-09-02T11:53:34.904Z,991.00
2018-09-02T11:54:34.828Z,990.99
2018-09-02T11:55:34.796Z,990.97
2018-09-02T11:56:34.713Z,990.94
2018-09-02T11:57:34.712Z,990.94
2018-09-02T11:58:34.605Z,990.92
2018-09-02T11:59:34.539Z,990.93
2018-09-02T12:00:34.461Z,990.94
2018-09-02T12:01:34.422Z,990.85
2018-09-02T12:02:34.388Z,990.85
2018-09-02T12:03:34.287Z,990.86
2018-09-02T12:04:34.222Z,990.78
2018-09-02T12:05:34.172Z,990.72
2018-09-02T12:06:34.112Z,990.72
2018-09-02T12:07:34.074Z,990.69
2018-09-02T12:08:33.988Z,990.69
2018-09-02T12:09:33.936Z,990.66
2018-09-02T12:10:33.863Z,990.65
2018-09-02T12:11:33.831Z,990.68
2018-09-02T12:12:33.739Z,990.65
2018-09-02T12:13:33.704Z,990.64
2018-09-02T12:14:33.847Z,990.62
2018-09-02T12:15:33.570Z,990.59
2018-09-02T12:16:33.508Z,990.55
2018-09-02T12:17:33.445Z,990.51
2018-09-02T12:18:33.447Z,990.53
2018-09-02T12:19:33.336Z,990.53
2018-09-02T12:20:33.264Z,990.55
2018-09-02T12:21:33.210Z,990.54
2018-09-02T12:22:33.136Z,990.51
2018-09-02T12:23:33.080Z,990.51
2018-09-02T12:24:33.031Z,990.53
2018-09-02T12:25:32.971Z,990.48
2018-09-02T12:26:32.910Z,990.47
2018-09-02T12:27:32.846Z,990.47